sensor_id;sensor_type;location;lat;lon;timestamp;P1;durP1;ratioP1;P2;durP2;ratioP2
47151;SDS011;32906;48.542;12.136;2022-08-05T00:00:13;2.00;;;1.38;;
47151;SDS011;32906;48.542;12.136;2022-08-05T00:02:40;1.80;;;1.38;;
47151;SDS011;32906;48.542;12.136;2022-08-05T00:05:09;1.75;;;1.45;;
47151;SDS011;32906;48.542;12.136;2022-08-05T00:07:36;1.90;;;1.50;;
47151;SDS011;32906;48.542;12.136;2022-08-05T00:10:04;1.92;;;1.30;;
47151;SDS011;32906;48.542;12.136;2022-08-05T00:12:31;2.33;;;1.70;;
47151;SDS011;32906;48.542;12.136;2022-08-05T00:14:58;2.03;;;1.48;;
47151;SDS011;32906;48.542;12.136;2022-08-05T00:17:26;1.40;;;1.30;;
47151;SDS011;32906;48.542;12.136;2022-08-05T00:19:53;2.75;;;1.55;;
47151;SDS011;32906;48.542;12.136;2022-08-05T00:22:21;2.78;;;1.65;;
47151;SDS011;32906;48.542;12.136;2022-08-05T00:24:49;1.77;;;1.27;;
47151;SDS011;32906;48.542;12.136;2022-08-05T00:27:16;2.10;;;1.83;;
47151;SDS011;32906;48.542;12.136;2022-08-05T00:29:43;2.83;;;1.50;;
47151;SDS011;32906;48.542;12.136;2022-08-05T00:32:10;2.90;;;1.85;;
47151;SDS011;32906;48.542;12.136;2022-08-05T00:34:38;2.78;;;1.70;;
47151;SDS011;32906;48.542;12.136;2022-08-05T00:37:05;1.60;;;1.20;;
47151;SDS011;32906;48.542;12.136;2022-08-05T00:39:34;1.80;;;1.40;;
47151;SDS011;32906;48.542;12.136;2022-08-05T00:42:01;1.65;;;1.55;;
47151;SDS011;32906;48.542;12.136;2022-08-05T00:44:28;3.80;;;1.83;;
47151;SDS011;32906;48.542;12.136;2022-08-05T00:46:55;5.13;;;1.42;;
47151;SDS011;32906;48.542;12.136;2022-08-05T00:49:22;2.10;;;1.42;;
47151;SDS011;32906;48.542;12.136;2022-08-05T00:51:50;3.60;;;1.75;;
47151;SDS011;32906;48.542;12.136;2022-08-05T00:54:17;1.70;;;1.27;;
47151;SDS011;32906;48.542;12.136;2022-08-05T00:56:45;1.92;;;1.25;;
47151;SDS011;32906;48.542;12.136;2022-08-05T00:59:13;2.42;;;1.60;;
47151;SDS011;32906;48.542;12.136;2022-08-05T01:01:40;3.05;;;1.30;;
47151;SDS011;32906;48.542;12.136;2022-08-05T01:04:07;1.60;;;1.50;;
47151;SDS011;32906;48.542;12.136;2022-08-05T01:06:34;2.15;;;1.48;;
47151;SDS011;32906;48.542;12.136;2022-08-05T01:09:02;2.10;;;1.63;;
47151;SDS011;32906;48.542;12.136;2022-08-05T01:11:31;1.80;;;1.50;;
47151;SDS011;32906;48.542;12.136;2022-08-05T01:14:04;1.83;;;1.50;;
47151;SDS011;32906;48.542;12.136;2022-08-05T01:16:32;1.40;;;1.30;;
47151;SDS011;32906;48.542;12.136;2022-08-05T01:19:06;2.92;;;1.58;;
47151;SDS011;32906;48.542;12.136;2022-08-05T01:21:40;1.90;;;1.55;;
47151;SDS011;32906;48.542;12.136;2022-08-05T01:24:21;1.80;;;1.55;;
47151;SDS011;32906;48.542;12.136;2022-08-05T01:26:54;1.67;;;1.45;;
47151;SDS011;32906;48.542;12.136;2022-08-05T01:29:25;1.67;;;1.58;;
47151;SDS011;32906;48.542;12.136;2022-08-05T01:31:56;4.00;;;1.95;;
47151;SDS011;32906;48.542;12.136;2022-08-05T01:34:25;5.18;;;1.70;;
47151;SDS011;32906;48.542;12.136;2022-08-05T01:36:54;1.67;;;1.40;;
47151;SDS011;32906;48.542;12.136;2022-08-05T01:39:22;5.20;;;1.60;;
47151;SDS011;32906;48.542;12.136;2022-08-05T01:41:49;3.25;;;1.67;;
47151;SDS011;32906;48.542;12.136;2022-08-05T01:44:17;1.75;;;1.65;;
47151;SDS011;32906;48.542;12.136;2022-08-05T01:46:46;3.88;;;1.90;;
47151;SDS011;32906;48.542;12.136;2022-08-05T01:49:15;2.25;;;1.70;;
47151;SDS011;32906;48.542;12.136;2022-08-05T01:51:43;2.85;;;1.70;;
47151;SDS011;32906;48.542;12.136;2022-08-05T01:54:11;2.65;;;2.45;;
47151;SDS011;32906;48.542;12.136;2022-08-05T01:56:39;3.75;;;1.98;;
47151;SDS011;32906;48.542;12.136;2022-08-05T01:59:08;2.58;;;1.80;;
47151;SDS011;32906;48.542;12.136;2022-08-05T02:01:37;2.28;;;2.08;;
47151;SDS011;32906;48.542;12.136;2022-08-05T02:04:06;1.70;;;1.60;;
47151;SDS011;32906;48.542;12.136;2022-08-05T02:06:35;1.60;;;1.50;;
47151;SDS011;32906;48.542;12.136;2022-08-05T02:09:02;1.85;;;1.75;;
47151;SDS011;32906;48.542;12.136;2022-08-05T02:11:31;3.65;;;2.28;;
47151;SDS011;32906;48.542;12.136;2022-08-05T02:14:02;3.80;;;1.95;;
47151;SDS011;32906;48.542;12.136;2022-08-05T02:16:31;3.85;;;2.17;;
47151;SDS011;32906;48.542;12.136;2022-08-05T02:19:02;2.42;;;2.10;;
47151;SDS011;32906;48.542;12.136;2022-08-05T02:21:34;2.13;;;1.88;;
47151;SDS011;32906;48.542;12.136;2022-08-05T02:24:03;2.15;;;1.95;;
47151;SDS011;32906;48.542;12.136;2022-08-05T02:26:34;2.45;;;2.25;;
47151;SDS011;32906;48.542;12.136;2022-08-05T02:29:02;1.98;;;1.88;;
47151;SDS011;32906;48.542;12.136;2022-08-05T02:31:30;2.17;;;1.98;;
47151;SDS011;32906;48.542;12.136;2022-08-05T02:34:00;1.98;;;1.88;;
47151;SDS011;32906;48.542;12.136;2022-08-05T02:36:28;4.43;;;1.70;;
47151;SDS011;32906;48.542;12.136;2022-08-05T02:38:59;1.58;;;1.48;;
47151;SDS011;32906;48.542;12.136;2022-08-05T02:41:27;2.95;;;2.22;;
47151;SDS011;32906;48.542;12.136;2022-08-05T02:43:56;4.05;;;1.75;;
47151;SDS011;32906;48.542;12.136;2022-08-05T02:46:24;3.28;;;2.65;;
47151;SDS011;32906;48.542;12.136;2022-08-05T02:48:52;2.15;;;1.80;;
47151;SDS011;32906;48.542;12.136;2022-08-05T02:51:20;4.55;;;2.45;;
47151;SDS011;32906;48.542;12.136;2022-08-05T02:53:48;2.10;;;1.90;;
47151;SDS011;32906;48.542;12.136;2022-08-05T02:56:17;3.05;;;2.25;;
47151;SDS011;32906;48.542;12.136;2022-08-05T02:58:44;4.50;;;2.20;;
47151;SDS011;32906;48.542;12.136;2022-08-05T03:01:13;5.13;;;2.10;;
47151;SDS011;32906;48.542;12.136;2022-08-05T03:03:41;2.33;;;2.13;;
47151;SDS011;32906;48.542;12.136;2022-08-05T03:06:09;2.03;;;1.85;;
47151;SDS011;32906;48.542;12.136;2022-08-05T03:08:37;3.65;;;2.08;;
47151;SDS011;32906;48.542;12.136;2022-08-05T03:11:14;2.90;;;2.60;;
47151;SDS011;32906;48.542;12.136;2022-08-05T03:13:43;3.22;;;2.92;;
47151;SDS011;32906;48.542;12.136;2022-08-05T03:16:10;3.00;;;2.80;;
47151;SDS011;32906;48.542;12.136;2022-08-05T03:18:37;3.25;;;2.40;;
47151;SDS011;32906;48.542;12.136;2022-08-05T03:21:05;3.13;;;2.17;;
47151;SDS011;32906;48.542;12.136;2022-08-05T03:23:32;2.80;;;2.42;;
47151;SDS011;32906;48.542;12.136;2022-08-05T03:26:00;2.58;;;2.00;;
47151;SDS011;32906;48.542;12.136;2022-08-05T03:28:28;1.77;;;1.63;;
47151;SDS011;32906;48.542;12.136;2022-08-05T03:30:57;3.13;;;2.05;;
47151;SDS011;32906;48.542;12.136;2022-08-05T03:33:25;2.13;;;1.92;;
47151;SDS011;32906;48.542;12.136;2022-08-05T03:35:54;3.63;;;2.22;;
47151;SDS011;32906;48.542;12.136;2022-08-05T03:38:22;4.07;;;2.42;;
47151;SDS011;32906;48.542;12.136;2022-08-05T03:40:49;2.00;;;1.90;;
47151;SDS011;32906;48.542;12.136;2022-08-05T03:43:17;4.32;;;2.08;;
47151;SDS011;32906;48.542;12.136;2022-08-05T03:45:45;2.05;;;1.88;;
47151;SDS011;32906;48.542;12.136;2022-08-05T03:48:14;3.25;;;1.75;;
47151;SDS011;32906;48.542;12.136;2022-08-05T03:50:42;2.63;;;2.38;;
47151;SDS011;32906;48.542;12.136;2022-08-05T03:53:10;2.65;;;2.03;;
47151;SDS011;32906;48.542;12.136;2022-08-05T03:58:21;6.28;;;2.42;;
47151;SDS011;32906;48.542;12.136;2022-08-05T04:00:50;2.90;;;2.40;;
47151;SDS011;32906;48.542;12.136;2022-08-05T04:03:20;2.45;;;2.22;;
47151;SDS011;32906;48.542;12.136;2022-08-05T04:05:49;2.47;;;2.03;;
47151;SDS011;32906;48.542;12.136;2022-08-05T04:08:17;2.78;;;2.40;;
47151;SDS011;32906;48.542;12.136;2022-08-05T04:10:44;2.63;;;2.00;;
47151;SDS011;32906;48.542;12.136;2022-08-05T04:13:11;3.60;;;2.80;;
47151;SDS011;32906;48.542;12.136;2022-08-05T04:15:38;4.63;;;1.73;;
47151;SDS011;32906;48.542;12.136;2022-08-05T04:18:06;3.33;;;2.35;;
47151;SDS011;32906;48.542;12.136;2022-08-05T04:20:34;7.68;;;2.80;;
47151;SDS011;32906;48.542;12.136;2022-08-05T04:23:02;3.45;;;2.58;;
47151;SDS011;32906;48.542;12.136;2022-08-05T04:25:29;2.25;;;2.10;;
47151;SDS011;32906;48.542;12.136;2022-08-05T04:27:56;4.88;;;2.70;;
47151;SDS011;32906;48.542;12.136;2022-08-05T04:30:23;2.22;;;2.03;;
47151;SDS011;32906;48.542;12.136;2022-08-05T04:32:51;2.42;;;2.22;;
47151;SDS011;32906;48.542;12.136;2022-08-05T04:35:18;3.80;;;2.97;;
47151;SDS011;32906;48.542;12.136;2022-08-05T04:37:47;3.13;;;2.83;;
47151;SDS011;32906;48.542;12.136;2022-08-05T04:40:14;2.88;;;2.63;;
47151;SDS011;32906;48.542;12.136;2022-08-05T04:42:41;13.07;;;7.70;;
47151;SDS011;32906;48.542;12.136;2022-08-05T04:45:09;6.57;;;4.35;;
47151;SDS011;32906;48.542;12.136;2022-08-05T04:47:36;3.25;;;3.00;;
47151;SDS011;32906;48.542;12.136;2022-08-05T04:50:04;5.13;;;3.25;;
47151;SDS011;32906;48.542;12.136;2022-08-05T04:52:31;4.90;;;3.28;;
47151;SDS011;32906;48.542;12.136;2022-08-05T04:54:59;3.53;;;3.22;;
47151;SDS011;32906;48.542;12.136;2022-08-05T04:57:27;3.90;;;3.33;;
47151;SDS011;32906;48.542;12.136;2022-08-05T04:59:55;3.67;;;2.58;;
47151;SDS011;32906;48.542;12.136;2022-08-05T05:02:22;3.22;;;2.70;;
47151;SDS011;32906;48.542;12.136;2022-08-05T05:04:49;3.83;;;3.53;;
47151;SDS011;32906;48.542;12.136;2022-08-05T05:07:17;4.07;;;2.97;;
47151;SDS011;32906;48.542;12.136;2022-08-05T05:09:44;3.63;;;2.90;;
47151;SDS011;32906;48.542;12.136;2022-08-05T05:12:12;3.08;;;2.78;;
47151;SDS011;32906;48.542;12.136;2022-08-05T05:14:40;2.75;;;2.38;;
47151;SDS011;32906;48.542;12.136;2022-08-05T05:17:07;3.17;;;2.88;;
47151;SDS011;32906;48.542;12.136;2022-08-05T05:19:34;2.95;;;2.53;;
47151;SDS011;32906;48.542;12.136;2022-08-05T05:22:03;3.10;;;2.80;;
47151;SDS011;32906;48.542;12.136;2022-08-05T05:24:31;4.20;;;3.33;;
47151;SDS011;32906;48.542;12.136;2022-08-05T05:26:58;3.30;;;3.08;;
47151;SDS011;32906;48.542;12.136;2022-08-05T05:29:27;6.00;;;3.20;;
47151;SDS011;32906;48.542;12.136;2022-08-05T05:31:54;3.97;;;3.38;;
47151;SDS011;32906;48.542;12.136;2022-08-05T05:34:22;5.45;;;3.55;;
47151;SDS011;32906;48.542;12.136;2022-08-05T05:36:49;7.18;;;3.90;;
47151;SDS011;32906;48.542;12.136;2022-08-05T05:39:16;9.65;;;3.33;;
47151;SDS011;32906;48.542;12.136;2022-08-05T05:41:43;5.25;;;3.78;;
47151;SDS011;32906;48.542;12.136;2022-08-05T05:44:11;5.40;;;3.50;;
47151;SDS011;32906;48.542;12.136;2022-08-05T05:46:39;4.63;;;4.22;;
47151;SDS011;32906;48.542;12.136;2022-08-05T05:49:06;4.43;;;3.88;;
47151;SDS011;32906;48.542;12.136;2022-08-05T05:51:33;6.80;;;3.35;;
47151;SDS011;32906;48.542;12.136;2022-08-05T05:54:01;6.00;;;3.78;;
47151;SDS011;32906;48.542;12.136;2022-08-05T05:56:29;4.53;;;4.15;;
47151;SDS011;32906;48.542;12.136;2022-08-05T05:58:56;3.92;;;3.35;;
47151;SDS011;32906;48.542;12.136;2022-08-05T06:01:23;4.10;;;3.75;;
47151;SDS011;32906;48.542;12.136;2022-08-05T06:03:52;4.05;;;3.33;;
47151;SDS011;32906;48.542;12.136;2022-08-05T06:06:19;4.13;;;3.72;;
47151;SDS011;32906;48.542;12.136;2022-08-05T06:08:46;6.28;;;3.75;;
47151;SDS011;32906;48.542;12.136;2022-08-05T06:11:13;5.60;;;3.15;;
47151;SDS011;32906;48.542;12.136;2022-08-05T06:13:41;5.03;;;3.05;;
47151;SDS011;32906;48.542;12.136;2022-08-05T06:16:08;5.30;;;3.35;;
47151;SDS011;32906;48.542;12.136;2022-08-05T06:18:35;6.95;;;3.58;;
47151;SDS011;32906;48.542;12.136;2022-08-05T06:21:04;4.45;;;3.67;;
47151;SDS011;32906;48.542;12.136;2022-08-05T06:23:31;3.75;;;3.30;;
47151;SDS011;32906;48.542;12.136;2022-08-05T06:25:58;3.75;;;3.40;;
47151;SDS011;32906;48.542;12.136;2022-08-05T06:28:26;2.90;;;2.70;;
47151;SDS011;32906;48.542;12.136;2022-08-05T06:30:53;4.55;;;3.78;;
47151;SDS011;32906;48.542;12.136;2022-08-05T06:33:20;3.25;;;2.95;;
47151;SDS011;32906;48.542;12.136;2022-08-05T06:35:47;3.28;;;2.97;;
47151;SDS011;32906;48.542;12.136;2022-08-05T06:38:16;3.17;;;2.85;;
47151;SDS011;32906;48.542;12.136;2022-08-05T06:40:43;3.65;;;3.35;;
47151;SDS011;32906;48.542;12.136;2022-08-05T06:43:11;4.25;;;2.88;;
47151;SDS011;32906;48.542;12.136;2022-08-05T06:45:38;5.20;;;2.92;;
47151;SDS011;32906;48.542;12.136;2022-08-05T06:48:06;5.45;;;3.05;;
47151;SDS011;32906;48.542;12.136;2022-08-05T06:50:33;5.65;;;3.33;;
47151;SDS011;32906;48.542;12.136;2022-08-05T06:53:00;11.00;;;3.35;;
47151;SDS011;32906;48.542;12.136;2022-08-05T06:55:29;2.63;;;2.42;;
47151;SDS011;32906;48.542;12.136;2022-08-05T06:57:56;4.93;;;2.88;;
47151;SDS011;32906;48.542;12.136;2022-08-05T07:00:23;3.63;;;2.92;;
47151;SDS011;32906;48.542;12.136;2022-08-05T07:02:50;5.82;;;2.88;;
47151;SDS011;32906;48.542;12.136;2022-08-05T07:05:18;4.75;;;2.55;;
47151;SDS011;32906;48.542;12.136;2022-08-05T07:07:45;4.40;;;2.90;;
47151;SDS011;32906;48.542;12.136;2022-08-05T07:10:13;2.92;;;2.72;;
47151;SDS011;32906;48.542;12.136;2022-08-05T07:12:42;2.88;;;2.58;;
47151;SDS011;32906;48.542;12.136;2022-08-05T07:15:27;2.70;;;2.50;;
47151;SDS011;32906;48.542;12.136;2022-08-05T07:18:12;3.20;;;2.60;;
47151;SDS011;32906;48.542;12.136;2022-08-05T07:20:39;8.30;;;3.30;;
47151;SDS011;32906;48.542;12.136;2022-08-05T07:23:06;4.68;;;3.13;;
47151;SDS011;32906;48.542;12.136;2022-08-05T07:25:34;3.08;;;2.58;;
47151;SDS011;32906;48.542;12.136;2022-08-05T07:28:02;3.58;;;2.70;;
47151;SDS011;32906;48.542;12.136;2022-08-05T07:30:30;3.83;;;3.03;;
47151;SDS011;32906;48.542;12.136;2022-08-05T07:32:57;2.80;;;2.58;;
47151;SDS011;32906;48.542;12.136;2022-08-05T07:35:24;4.07;;;2.95;;
47151;SDS011;32906;48.542;12.136;2022-08-05T07:37:52;4.72;;;3.08;;
47151;SDS011;32906;48.542;12.136;2022-08-05T07:40:19;3.17;;;2.35;;
47151;SDS011;32906;48.542;12.136;2022-08-05T07:42:46;2.58;;;2.38;;
47151;SDS011;32906;48.542;12.136;2022-08-05T07:45:15;3.30;;;2.55;;
47151;SDS011;32906;48.542;12.136;2022-08-05T07:47:43;2.83;;;2.63;;
47151;SDS011;32906;48.542;12.136;2022-08-05T07:50:10;2.50;;;2.20;;
47151;SDS011;32906;48.542;12.136;2022-08-05T07:52:37;3.40;;;2.83;;
47151;SDS011;32906;48.542;12.136;2022-08-05T07:55:05;2.38;;;2.17;;
47151;SDS011;32906;48.542;12.136;2022-08-05T07:57:32;3.08;;;2.30;;
47151;SDS011;32906;48.542;12.136;2022-08-05T07:59:59;4.60;;;2.70;;
47151;SDS011;32906;48.542;12.136;2022-08-05T08:02:38;2.53;;;2.28;;
47151;SDS011;32906;48.542;12.136;2022-08-05T08:05:05;4.43;;;2.28;;
47151;SDS011;32906;48.542;12.136;2022-08-05T08:07:33;3.45;;;2.13;;
47151;SDS011;32906;48.542;12.136;2022-08-05T08:10:00;5.05;;;2.90;;
47151;SDS011;32906;48.542;12.136;2022-08-05T08:12:28;3.15;;;2.10;;
47151;SDS011;32906;48.542;12.136;2022-08-05T08:14:55;2.80;;;2.22;;
47151;SDS011;32906;48.542;12.136;2022-08-05T08:17:22;4.50;;;2.80;;
47151;SDS011;32906;48.542;12.136;2022-08-05T08:19:51;3.58;;;2.55;;
47151;SDS011;32906;48.542;12.136;2022-08-05T08:22:23;2.78;;;2.42;;
47151;SDS011;32906;48.542;12.136;2022-08-05T08:24:51;5.47;;;2.13;;
47151;SDS011;32906;48.542;12.136;2022-08-05T08:27:18;2.53;;;2.20;;
47151;SDS011;32906;48.542;12.136;2022-08-05T08:29:45;2.15;;;1.80;;
47151;SDS011;32906;48.542;12.136;2022-08-05T08:32:13;2.38;;;1.88;;
47151;SDS011;32906;48.542;12.136;2022-08-05T08:34:40;4.97;;;2.60;;
47151;SDS011;32906;48.542;12.136;2022-08-05T08:37:09;5.32;;;2.78;;
47151;SDS011;32906;48.542;12.136;2022-08-05T08:39:36;3.70;;;2.85;;
47151;SDS011;32906;48.542;12.136;2022-08-05T08:42:04;4.32;;;2.63;;
47151;SDS011;32906;48.542;12.136;2022-08-05T08:44:31;4.28;;;2.47;;
47151;SDS011;32906;48.542;12.136;2022-08-05T08:46:59;3.28;;;2.63;;
47151;SDS011;32906;48.542;12.136;2022-08-05T08:49:28;2.92;;;2.60;;
47151;SDS011;32906;48.542;12.136;2022-08-05T08:51:57;5.03;;;2.40;;
47151;SDS011;32906;48.542;12.136;2022-08-05T08:54:26;4.60;;;2.67;;
47151;SDS011;32906;48.542;12.136;2022-08-05T08:56:53;4.78;;;2.50;;
47151;SDS011;32906;48.542;12.136;2022-08-05T08:59:21;3.22;;;2.63;;
47151;SDS011;32906;48.542;12.136;2022-08-05T09:01:48;3.88;;;2.55;;
47151;SDS011;32906;48.542;12.136;2022-08-05T09:04:16;2.42;;;2.22;;
47151;SDS011;32906;48.542;12.136;2022-08-05T09:06:43;3.35;;;2.13;;
47151;SDS011;32906;48.542;12.136;2022-08-05T09:09:10;3.60;;;2.40;;
47151;SDS011;32906;48.542;12.136;2022-08-05T09:11:39;2.67;;;2.05;;
47151;SDS011;32906;48.542;12.136;2022-08-05T09:14:06;3.03;;;1.88;;
47151;SDS011;32906;48.542;12.136;2022-08-05T09:16:34;2.92;;;2.35;;
47151;SDS011;32906;48.542;12.136;2022-08-05T09:19:01;3.25;;;2.95;;
47151;SDS011;32906;48.542;12.136;2022-08-05T09:21:28;2.33;;;2.20;;
47151;SDS011;32906;48.542;12.136;2022-08-05T09:24:02;2.28;;;1.88;;
47151;SDS011;32906;48.542;12.136;2022-08-05T09:26:30;2.80;;;2.58;;
47151;SDS011;32906;48.542;12.136;2022-08-05T09:28:59;5.25;;;2.25;;
47151;SDS011;32906;48.542;12.136;2022-08-05T09:31:29;2.85;;;2.08;;
47151;SDS011;32906;48.542;12.136;2022-08-05T09:33:57;2.33;;;2.00;;
47151;SDS011;32906;48.542;12.136;2022-08-05T09:36:36;2.65;;;1.95;;
47151;SDS011;32906;48.542;12.136;2022-08-05T09:39:05;5.03;;;2.67;;
47151;SDS011;32906;48.542;12.136;2022-08-05T09:41:32;3.35;;;1.90;;
47151;SDS011;32906;48.542;12.136;2022-08-05T09:44:01;2.47;;;1.80;;
47151;SDS011;32906;48.542;12.136;2022-08-05T09:46:29;7.30;;;1.85;;
47151;SDS011;32906;48.542;12.136;2022-08-05T09:48:57;5.47;;;1.48;;
47151;SDS011;32906;48.542;12.136;2022-08-05T09:51:29;2.88;;;2.45;;
47151;SDS011;32906;48.542;12.136;2022-08-05T09:53:57;28.15;;;15.75;;
47151;SDS011;32906;48.542;12.136;2022-08-05T09:56:25;10.65;;;6.85;;
47151;SDS011;32906;48.542;12.136;2022-08-05T09:58:56;17.30;;;12.05;;
47151;SDS011;32906;48.542;12.136;2022-08-05T10:01:25;8.02;;;4.97;;
47151;SDS011;32906;48.542;12.136;2022-08-05T10:03:56;5.25;;;3.70;;
47151;SDS011;32906;48.542;12.136;2022-08-05T10:06:25;4.32;;;2.50;;
47151;SDS011;32906;48.542;12.136;2022-08-05T10:08:52;7.10;;;3.88;;
47151;SDS011;32906;48.542;12.136;2022-08-05T10:11:20;2.80;;;2.15;;
47151;SDS011;32906;48.542;12.136;2022-08-05T10:13:47;3.22;;;2.17;;
47151;SDS011;32906;48.542;12.136;2022-08-05T10:16:29;3.08;;;1.80;;
47151;SDS011;32906;48.542;12.136;2022-08-05T10:18:58;5.10;;;2.03;;
47151;SDS011;32906;48.542;12.136;2022-08-05T10:21:25;1.77;;;1.55;;
47151;SDS011;32906;48.542;12.136;2022-08-05T10:23:53;1.80;;;1.70;;
47151;SDS011;32906;48.542;12.136;2022-08-05T10:26:20;3.83;;;1.83;;
47151;SDS011;32906;48.542;12.136;2022-08-05T10:28:47;3.95;;;1.90;;
47151;SDS011;32906;48.542;12.136;2022-08-05T10:31:15;1.73;;;1.63;;
47151;SDS011;32906;48.542;12.136;2022-08-05T10:33:44;3.13;;;1.83;;
47151;SDS011;32906;48.542;12.136;2022-08-05T10:36:12;3.25;;;1.80;;
47151;SDS011;32906;48.542;12.136;2022-08-05T10:38:40;3.40;;;1.77;;
47151;SDS011;32906;48.542;12.136;2022-08-05T10:41:10;6.97;;;1.85;;
47151;SDS011;32906;48.542;12.136;2022-08-05T10:43:42;2.33;;;1.42;;
47151;SDS011;32906;48.542;12.136;2022-08-05T10:46:14;1.70;;;1.45;;
47151;SDS011;32906;48.542;12.136;2022-08-05T10:48:42;3.58;;;2.03;;
47151;SDS011;32906;48.542;12.136;2022-08-05T10:51:12;2.28;;;1.98;;
47151;SDS011;32906;48.542;12.136;2022-08-05T10:53:40;3.20;;;1.63;;
47151;SDS011;32906;48.542;12.136;2022-08-05T10:56:09;1.67;;;1.58;;
47151;SDS011;32906;48.542;12.136;2022-08-05T10:58:46;5.75;;;1.88;;
47151;SDS011;32906;48.542;12.136;2022-08-05T11:01:13;3.08;;;1.52;;
47151;SDS011;32906;48.542;12.136;2022-08-05T11:03:58;2.75;;;1.40;;
47151;SDS011;32906;48.542;12.136;2022-08-05T11:06:26;4.50;;;1.60;;
47151;SDS011;32906;48.542;12.136;2022-08-05T11:09:09;3.80;;;1.95;;
47151;SDS011;32906;48.542;12.136;2022-08-05T11:11:36;4.25;;;1.50;;
47151;SDS011;32906;48.542;12.136;2022-08-05T11:14:05;2.53;;;1.20;;
47151;SDS011;32906;48.542;12.136;2022-08-05T11:16:33;3.40;;;2.17;;
47151;SDS011;32906;48.542;12.136;2022-08-05T11:21:47;2.50;;;1.40;;
47151;SDS011;32906;48.542;12.136;2022-08-05T11:24:15;2.55;;;1.38;;
47151;SDS011;32906;48.542;12.136;2022-08-05T11:26:42;1.38;;;1.02;;
47151;SDS011;32906;48.542;12.136;2022-08-05T11:29:32;1.40;;;1.27;;
47151;SDS011;32906;48.542;12.136;2022-08-05T11:32:21;2.08;;;1.15;;
47151;SDS011;32906;48.542;12.136;2022-08-05T11:34:48;3.28;;;1.20;;
47151;SDS011;32906;48.542;12.136;2022-08-05T11:39:59;8.18;;;2.75;;
47151;SDS011;32906;48.542;12.136;2022-08-05T11:42:26;1.30;;;1.20;;
47151;SDS011;32906;48.542;12.136;2022-08-05T11:44:54;6.47;;;1.35;;
47151;SDS011;32906;48.542;12.136;2022-08-05T11:47:27;1.27;;;0.90;;
47151;SDS011;32906;48.542;12.136;2022-08-05T11:49:55;2.45;;;0.98;;
47151;SDS011;32906;48.542;12.136;2022-08-05T11:52:23;1.70;;;1.00;;
47151;SDS011;32906;48.542;12.136;2022-08-05T11:54:50;1.50;;;0.95;;
47151;SDS011;32906;48.542;12.136;2022-08-05T11:57:19;2.42;;;1.42;;
47151;SDS011;32906;48.542;12.136;2022-08-05T11:59:47;3.08;;;1.05;;
47151;SDS011;32906;48.542;12.136;2022-08-05T12:02:14;3.78;;;0.90;;
47151;SDS011;32906;48.542;12.136;2022-08-05T12:04:42;1.13;;;0.82;;
47151;SDS011;32906;48.542;12.136;2022-08-05T12:07:11;2.08;;;1.20;;
47151;SDS011;32906;48.542;12.136;2022-08-05T12:09:40;4.57;;;1.40;;
47151;SDS011;32906;48.542;12.136;2022-08-05T12:12:08;2.97;;;1.42;;
47151;SDS011;32906;48.542;12.136;2022-08-05T12:14:38;5.32;;;1.40;;
47151;SDS011;32906;48.542;12.136;2022-08-05T12:17:06;2.65;;;1.15;;
47151;SDS011;32906;48.542;12.136;2022-08-05T12:19:39;1.92;;;1.52;;
47151;SDS011;32906;48.542;12.136;2022-08-05T12:22:06;4.35;;;1.20;;
47151;SDS011;32906;48.542;12.136;2022-08-05T12:24:34;3.80;;;1.70;;
47151;SDS011;32906;48.542;12.136;2022-08-05T12:27:05;3.20;;;1.05;;
47151;SDS011;32906;48.542;12.136;2022-08-05T12:29:32;2.80;;;1.58;;
47151;SDS011;32906;48.542;12.136;2022-08-05T12:32:01;9.02;;;1.35;;
47151;SDS011;32906;48.542;12.136;2022-08-05T12:34:29;2.28;;;0.90;;
47151;SDS011;32906;48.542;12.136;2022-08-05T12:36:57;6.72;;;1.15;;
47151;SDS011;32906;48.542;12.136;2022-08-05T12:39:26;12.05;;;2.30;;
47151;SDS011;32906;48.542;12.136;2022-08-05T12:41:56;1.90;;;1.02;;
47151;SDS011;32906;48.542;12.136;2022-08-05T12:44:23;1.20;;;0.90;;
47151;SDS011;32906;48.542;12.136;2022-08-05T12:46:52;1.60;;;1.02;;
47151;SDS011;32906;48.542;12.136;2022-08-05T12:49:21;3.90;;;0.90;;
47151;SDS011;32906;48.542;12.136;2022-08-05T12:51:48;3.10;;;1.15;;
47151;SDS011;32906;48.542;12.136;2022-08-05T12:54:17;1.67;;;0.95;;
47151;SDS011;32906;48.542;12.136;2022-08-05T12:56:48;2.00;;;0.88;;
47151;SDS011;32906;48.542;12.136;2022-08-05T12:59:17;2.20;;;1.17;;
47151;SDS011;32906;48.542;12.136;2022-08-05T13:01:51;2.55;;;0.98;;
47151;SDS011;32906;48.542;12.136;2022-08-05T13:04:20;2.35;;;0.70;;
47151;SDS011;32906;48.542;12.136;2022-08-05T13:06:48;2.88;;;0.80;;
47151;SDS011;32906;48.542;12.136;2022-08-05T13:09:15;2.80;;;1.00;;
47151;SDS011;32906;48.542;12.136;2022-08-05T13:11:43;0.98;;;0.88;;
47151;SDS011;32906;48.542;12.136;2022-08-05T13:14:13;1.48;;;1.00;;
47151;SDS011;32906;48.542;12.136;2022-08-05T13:16:45;4.18;;;1.00;;
47151;SDS011;32906;48.542;12.136;2022-08-05T13:19:12;3.00;;;1.05;;
47151;SDS011;32906;48.542;12.136;2022-08-05T13:21:41;2.50;;;0.85;;
47151;SDS011;32906;48.542;12.136;2022-08-05T13:24:08;2.88;;;0.90;;
47151;SDS011;32906;48.542;12.136;2022-08-05T13:26:35;3.75;;;0.93;;
47151;SDS011;32906;48.542;12.136;2022-08-05T13:29:02;1.83;;;1.00;;
47151;SDS011;32906;48.542;12.136;2022-08-05T13:31:30;2.22;;;0.95;;
47151;SDS011;32906;48.542;12.136;2022-08-05T13:33:57;3.45;;;0.93;;
47151;SDS011;32906;48.542;12.136;2022-08-05T13:36:24;2.25;;;0.88;;
47151;SDS011;32906;48.542;12.136;2022-08-05T13:38:53;1.13;;;0.90;;
47151;SDS011;32906;48.542;12.136;2022-08-05T13:41:20;2.05;;;1.00;;
47151;SDS011;32906;48.542;12.136;2022-08-05T13:43:47;2.55;;;0.82;;
47151;SDS011;32906;48.542;12.136;2022-08-05T13:46:15;1.05;;;0.90;;
47151;SDS011;32906;48.542;12.136;2022-08-05T13:48:42;3.00;;;1.00;;
47151;SDS011;32906;48.542;12.136;2022-08-05T13:51:10;1.20;;;0.93;;
47151;SDS011;32906;48.542;12.136;2022-08-05T13:53:37;1.48;;;1.08;;
47151;SDS011;32906;48.542;12.136;2022-08-05T13:56:06;1.27;;;0.90;;
47151;SDS011;32906;48.542;12.136;2022-08-05T13:58:34;1.25;;;0.90;;
47151;SDS011;32906;48.542;12.136;2022-08-05T14:01:02;2.80;;;0.70;;
47151;SDS011;32906;48.542;12.136;2022-08-05T14:03:29;1.77;;;0.90;;
47151;SDS011;32906;48.542;12.136;2022-08-05T14:05:56;2.58;;;0.88;;
47151;SDS011;32906;48.542;12.136;2022-08-05T14:08:22;2.05;;;0.90;;
47151;SDS011;32906;48.542;12.136;2022-08-05T14:10:50;3.80;;;0.90;;
47151;SDS011;32906;48.542;12.136;2022-08-05T14:13:18;1.60;;;1.20;;
47151;SDS011;32906;48.542;12.136;2022-08-05T14:15:46;6.75;;;1.52;;
47151;SDS011;32906;48.542;12.136;2022-08-05T14:18:14;3.80;;;1.10;;
47151;SDS011;32906;48.542;12.136;2022-08-05T14:20:41;1.60;;;0.70;;
47151;SDS011;32906;48.542;12.136;2022-08-05T14:23:09;1.33;;;0.90;;
47151;SDS011;32906;48.542;12.136;2022-08-05T14:25:36;1.60;;;0.80;;
47151;SDS011;32906;48.542;12.136;2022-08-05T14:28:03;1.48;;;1.00;;
47151;SDS011;32906;48.542;12.136;2022-08-05T14:30:32;1.77;;;1.02;;
47151;SDS011;32906;48.542;12.136;2022-08-05T14:32:59;1.95;;;1.02;;
47151;SDS011;32906;48.542;12.136;2022-08-05T14:35:28;2.15;;;1.00;;
47151;SDS011;32906;48.542;12.136;2022-08-05T14:37:56;1.48;;;1.35;;
47151;SDS011;32906;48.542;12.136;2022-08-05T14:40:23;1.67;;;0.90;;
47151;SDS011;32906;48.542;12.136;2022-08-05T14:42:51;3.42;;;1.10;;
47151;SDS011;32906;48.542;12.136;2022-08-05T14:45:18;1.45;;;0.70;;
47151;SDS011;32906;48.542;12.136;2022-08-05T14:47:47;1.35;;;0.90;;